createdAt,value
2019-01-18T00:01:04.717Z,8.27
2019-01-18T00:03:34.254Z,9.37
2019-01-18T00:06:03.891Z,8.23
2019-01-18T00:08:33.546Z,6.83
2019-01-18T00:11:03.136Z,8.63
2019-01-18T00:13:32.785Z,12.27
2019-01-18T00:16:02.224Z,17.53
2019-01-18T00:18:31.898Z,17.00
2019-01-18T00:21:02.075Z,14.30
2019-01-18T00:23:31.844Z,7.53
2019-01-18T00:26:01.624Z,5.40
2019-01-18T00:28:31.312Z,4.50
2019-01-18T00:31:01.019Z,4.13
2019-01-18T00:33:30.892Z,4.90
2019-01-18T00:36:00.674Z,5.30
2019-01-18T00:38:30.057Z,5.23
2019-01-18T00:40:59.801Z,6.07
2019-01-18T00:43:29.675Z,5.27
2019-01-18T00:45:59.507Z,3.50
2019-01-18T00:48:29.118Z,3.90
2019-01-18T00:50:58.555Z,6.23
2019-01-18T00:53:28.047Z,3.63
2019-01-18T00:55:57.724Z,4.27
2019-01-18T00:58:27.373Z,6.43
2019-01-18T01:00:56.908Z,7.03
2019-01-18T01:03:26.457Z,9.13
2019-01-18T01:05:55.896Z,9.30
2019-01-18T01:08:25.393Z,7.80
2019-01-18T01:10:55.053Z,5.93
2019-01-18T01:13:24.678Z,8.10
2019-01-18T01:15:54.298Z,7.87
2019-01-18T01:18:24.112Z,6.10
2019-01-18T01:20:53.685Z,6.00
2019-01-18T01:23:23.397Z,6.60
2019-01-18T01:25:53.216Z,5.00
2019-01-18T01:28:23.131Z,5.90
2019-01-18T01:30:53.014Z,7.63
2019-01-18T01:33:22.537Z,9.77
2019-01-18T01:35:52.656Z,9.47
2019-01-18T01:38:22.467Z,7.60
2019-01-18T01:40:51.898Z,6.20
2019-01-18T01:43:21.749Z,6.07
2019-01-18T01:45:51.594Z,4.53
2019-01-18T01:48:21.139Z,5.60
2019-01-18T01:50:50.742Z,5.43
2019-01-18T01:53:20.221Z,4.87
2019-01-18T01:55:49.931Z,5.00
2019-01-18T01:58:19.540Z,5.00
2019-01-18T02:00:49.318Z,6.13
2019-01-18T02:03:18.809Z,5.43
2019-01-18T02:05:48.244Z,5.47
2019-01-18T02:08:17.961Z,4.93
2019-01-18T02:10:47.386Z,5.90
2019-01-18T02:13:16.900Z,6.30
2019-01-18T02:15:46.574Z,6.77
2019-01-18T02:18:16.310Z,6.27
2019-01-18T02:20:46.205Z,6.30
2019-01-18T02:23:15.909Z,5.97
2019-01-18T02:25:45.639Z,5.30
2019-01-18T02:28:15.346Z,3.50
2019-01-18T02:30:44.801Z,3.50
2019-01-18T02:33:14.196Z,3.13
2019-01-18T02:35:43.766Z,4.60
2019-01-18T02:38:13.508Z,2.93
2019-01-18T02:40:43.363Z,2.60
2019-01-18T02:43:13.056Z,2.43
2019-01-18T02:45:42.504Z,2.80
2019-01-18T02:48:11.978Z,3.70
2019-01-18T02:50:41.578Z,4.57
2019-01-18T02:53:11.180Z,5.23
2019-01-18T02:55:40.614Z,5.20
2019-01-18T02:58:10.198Z,6.70
2019-01-18T03:00:39.732Z,6.37
2019-01-18T03:03:09.438Z,6.60
2019-01-18T03:05:39.224Z,6.60
2019-01-18T03:08:08.603Z,6.20
2019-01-18T03:10:38.061Z,6.20
2019-01-18T03:13:07.780Z,6.90
2019-01-18T03:15:37.539Z,7.03
2019-01-18T03:18:07.251Z,8.27
2019-01-18T03:20:37.136Z,10.37
2019-01-18T03:23:06.624Z,7.90
2019-01-18T03:25:36.278Z,5.67
2019-01-18T03:28:05.884Z,4.77
2019-01-18T03:30:35.624Z,3.83
2019-01-18T03:33:05.429Z,4.57
2019-01-18T03:35:35.005Z,7.10
2019-01-18T03:38:04.859Z,6.00
2019-01-18T03:40:34.544Z,4.03
2019-01-18T03:43:04.245Z,3.50
2019-01-18T03:45:34.017Z,3.90
2019-01-18T03:48:03.709Z,4.20
2019-01-18T03:50:33.382Z,5.00
2019-01-18T03:53:02.970Z,10.37
2019-01-18T03:55:32.392Z,7.00
2019-01-18T03:58:01.938Z,5.00
2019-01-18T04:00:31.592Z,4.80
2019-01-18T04:03:01.067Z,4.00
2019-01-18T04:05:30.868Z,3.30
2019-01-18T04:08:00.449Z,3.60
2019-01-18T04:10:30.242Z,6.90
2019-01-18T04:12:59.630Z,4.13
2019-01-18T04:15:29.060Z,4.60
2019-01-18T04:17:58.846Z,4.80
2019-01-18T04:20:28.398Z,6.23
2019-01-18T04:22:57.950Z,4.77
2019-01-18T04:25:30.146Z,5.00
2019-01-18T04:27:59.794Z,61.67
2019-01-18T04:30:33.487Z,19.47
2019-01-18T04:33:01.094Z,15.37
2019-01-18T04:35:30.881Z,13.40
2019-01-18T04:38:00.735Z,9.87
2019-01-18T04:40:30.631Z,7.30
2019-01-18T04:43:00.332Z,9.93
2019-01-18T04:45:30.223Z,7.53
2019-01-18T04:48:00.059Z,4.93
2019-01-18T04:50:30.383Z,5.30
2019-01-18T04:52:59.996Z,6.40
2019-01-18T04:55:29.442Z,22.20
2019-01-18T04:57:58.983Z,17.60
2019-01-18T05:00:30.369Z,15.93
2019-01-18T05:03:00.100Z,14.73
2019-01-18T05:05:29.680Z,16.20
2019-01-18T05:07:59.250Z,11.87
2019-01-18T05:10:29.841Z,15.30
2019-01-18T05:13:00.060Z,23.27
2019-01-18T05:15:33.720Z,29.03
2019-01-18T05:18:03.335Z,18.03
2019-01-18T05:20:32.872Z,5.73
2019-01-18T05:23:02.361Z,5.50
2019-01-18T05:25:31.918Z,5.10
2019-01-18T05:28:01.549Z,4.20
2019-01-18T05:30:31.635Z,3.40
2019-01-18T05:33:01.213Z,5.30
2019-01-18T05:35:30.985Z,7.07
2019-01-18T05:38:00.805Z,8.70
2019-01-18T05:40:30.601Z,9.93
2019-01-18T05:43:00.304Z,10.50
2019-01-18T05:45:30.054Z,15.57
2019-01-18T05:47:59.679Z,23.53
2019-01-18T05:50:30.607Z,34.30
2019-01-18T05:53:04.013Z,22.00
2019-01-18T05:55:33.676Z,28.40
2019-01-18T05:58:03.644Z,10.33
2019-01-18T06:00:55.194Z,11.23
2019-01-18T06:03:22.155Z,7.70
2019-01-18T06:05:51.850Z,6.83
2019-01-18T06:08:21.519Z,15.83
2019-01-18T06:10:51.424Z,19.97
2019-01-18T06:13:21.082Z,15.53
2019-01-18T06:15:50.631Z,16.40
2019-01-18T06:18:20.185Z,15.00
2019-01-18T06:20:49.832Z,14.57
2019-01-18T06:23:19.458Z,18.90
2019-01-18T06:25:49.130Z,23.57
2019-01-18T06:28:18.843Z,26.53
2019-01-18T06:30:48.291Z,23.13
2019-01-18T06:33:17.768Z,25.60
2019-01-18T06:35:47.558Z,30.37
2019-01-18T06:38:17.268Z,39.00
2019-01-18T06:40:48.319Z,41.63
2019-01-18T06:43:17.950Z,59.20
2019-01-18T06:45:47.392Z,70.10
2019-01-18T06:48:20.952Z,86.60
2019-01-18T06:50:50.412Z,254.50
2019-01-18T06:53:19.903Z,183.90
2019-01-18T07:14:52.576Z,102.23
2019-01-18T07:17:22.339Z,53.37
2019-01-18T07:19:51.872Z,29.13
2019-01-18T07:22:21.623Z,20.13
2019-01-18T07:24:51.316Z,27.87
2019-01-18T07:27:20.795Z,18.23
2019-01-18T07:29:50.695Z,16.43
2019-01-18T07:32:20.088Z,14.67
2019-01-18T07:34:49.818Z,15.97
2019-01-18T07:37:19.321Z,19.37
2019-01-18T07:57:31.599Z,31.77
2019-01-18T08:00:01.102Z,27.10
2019-01-18T08:02:33.413Z,20.53
2019-01-18T08:05:02.805Z,24.93
2019-01-18T08:07:32.217Z,25.40
2019-01-18T08:10:01.706Z,25.03
2019-01-18T08:12:31.200Z,28.73
2019-01-18T08:15:00.603Z,28.93
2019-01-18T08:17:30.039Z,36.83
2019-01-18T08:19:59.545Z,38.20
2019-01-18T08:22:29.039Z,60.20
2019-01-18T08:24:58.422Z,52.77
2019-01-18T08:27:27.826Z,50.10
2019-01-18T08:29:57.329Z,53.07
2019-01-18T08:32:26.803Z,43.40
2019-01-18T08:34:56.220Z,48.00
2019-01-18T08:37:25.703Z,51.90
2019-01-18T08:39:55.161Z,11.07
2019-01-18T08:42:24.564Z,22.57
2019-01-18T08:44:54.058Z,39.90
2019-01-18T08:47:23.544Z,39.93
2019-01-18T08:49:52.956Z,38.77
2019-01-18T08:52:22.367Z,39.10
2019-01-18T08:54:51.866Z,37.70
2019-01-18T08:57:21.506Z,34.50
2019-01-18T08:59:50.991Z,37.17
2019-01-18T09:02:21.794Z,48.63
2019-01-18T09:04:51.396Z,46.20
2019-01-18T09:07:20.889Z,44.70
2019-01-18T09:09:50.296Z,40.37
2019-01-18T09:12:19.702Z,45.27
2019-01-18T09:14:49.183Z,53.07
2019-01-18T09:17:20.572Z,46.40
2019-01-18T09:19:50.042Z,41.93
2019-01-18T09:22:19.516Z,37.73
2019-01-18T09:24:48.943Z,30.00
2019-01-18T09:27:18.352Z,24.47
2019-01-18T09:29:47.865Z,23.50
2019-01-18T09:32:17.355Z,25.80
2019-01-18T09:34:46.759Z,24.40
2019-01-18T09:37:16.269Z,25.37
2019-01-18T09:39:45.768Z,27.30
2019-01-18T09:42:15.285Z,27.23
2019-01-18T09:44:44.694Z,31.73
2019-01-18T09:47:14.095Z,22.93
2019-01-18T09:49:43.691Z,22.20
2019-01-18T09:52:13.199Z,23.53
2019-01-18T09:54:44.948Z,19.37
2019-01-18T09:57:15.655Z,19.73
2019-01-18T09:59:45.069Z,19.90
2019-01-18T10:02:14.469Z,18.00
2019-01-18T10:04:43.966Z,25.57
2019-01-18T10:07:13.451Z,26.60
2019-01-18T10:09:42.855Z,19.90
2019-01-18T10:12:12.384Z,19.63
2019-01-18T10:14:41.886Z,19.80
2019-01-18T10:17:11.378Z,19.93
2019-01-18T10:19:40.778Z,24.33
2019-01-18T10:22:10.193Z,21.50
2019-01-18T10:24:39.702Z,19.23
2019-01-18T10:27:09.192Z,20.47
2019-01-18T10:29:38.609Z,20.37
2019-01-18T10:32:09.794Z,21.40
2019-01-18T10:34:39.309Z,21.30
2019-01-18T10:37:08.795Z,23.03
2019-01-18T10:39:38.210Z,18.73
2019-01-18T10:42:07.656Z,16.30
2019-01-18T10:44:37.210Z,17.77
2019-01-18T10:47:06.698Z,18.30
2019-01-18T10:49:36.104Z,19.03
2019-01-18T10:52:05.512Z,17.70
2019-01-18T10:54:35.006Z,19.00
2019-01-18T10:57:04.658Z,19.20
2019-01-18T10:59:34.067Z,18.73
2019-01-18T11:02:07.175Z,19.13
2019-01-18T11:04:34.803Z,19.10
2019-01-18T11:07:04.446Z,19.77
2019-01-18T11:09:33.849Z,18.70
2019-01-18T11:12:03.255Z,15.90
2019-01-18T11:14:32.798Z,16.20
2019-01-18T11:17:02.216Z,19.13
2019-01-18T11:19:31.724Z,24.50
2019-01-18T11:22:01.381Z,24.63
2019-01-18T11:24:30.779Z,25.03
2019-01-18T11:27:00.195Z,24.13
2019-01-18T11:29:29.683Z,21.77
2019-01-18T11:31:59.168Z,22.10
2019-01-18T11:34:28.551Z,22.57
2019-01-18T11:36:58.272Z,22.87
2019-01-18T11:39:27.867Z,23.17
2019-01-18T11:41:57.334Z,25.80
2019-01-18T11:44:26.755Z,24.13
2019-01-18T11:46:56.173Z,21.23
2019-01-18T11:49:25.662Z,23.07
2019-01-18T11:51:55.198Z,28.50
2019-01-18T11:54:24.601Z,26.30
2019-01-18T11:56:54.087Z,24.67
2019-01-18T11:59:23.495Z,20.83
2019-01-18T12:01:52.967Z,16.23
2019-01-18T12:04:22.461Z,18.07
2019-01-18T12:06:51.990Z,12.43
2019-01-18T12:09:21.393Z,14.67
2019-01-18T12:11:50.812Z,12.50
2019-01-18T12:14:20.292Z,13.97
2019-01-18T12:16:49.801Z,12.33
2019-01-18T12:19:19.200Z,11.40
2019-01-18T12:21:48.616Z,16.13
2019-01-18T12:24:18.112Z,20.27
2019-01-18T12:26:47.608Z,28.60
2019-01-18T12:29:17.013Z,31.13
2019-01-18T12:31:46.501Z,26.90
2019-01-18T12:34:15.987Z,20.83
2019-01-18T12:36:45.383Z,21.93
2019-01-18T12:39:14.883Z,19.30
2019-01-18T12:41:44.376Z,18.07
2019-01-18T12:44:13.787Z,16.63
2019-01-18T12:46:43.203Z,21.43
2019-01-18T12:49:12.694Z,21.53
2019-01-18T12:51:42.202Z,16.00
2019-01-18T12:54:11.607Z,16.10
2019-01-18T12:56:41.015Z,16.57
2019-01-18T12:59:10.513Z,18.83
2019-01-18T13:01:40.008Z,19.63
2019-01-18T13:04:09.407Z,24.73
2019-01-18T13:06:41.120Z,29.37
2019-01-18T13:09:10.617Z,33.30
2019-01-18T13:11:40.114Z,36.43
2019-01-18T13:14:09.512Z,31.97
2019-01-18T13:16:46.746Z,44.53
2019-01-18T13:19:21.654Z,34.40
2019-01-18T13:21:51.071Z,29.57
2019-01-18T13:24:20.646Z,28.13
2019-01-18T13:26:51.315Z,40.53
2019-01-18T13:29:20.700Z,35.30
2019-01-18T13:31:50.163Z,27.17
2019-01-18T13:34:19.816Z,20.80
2019-01-18T13:36:49.289Z,21.03
2019-01-18T13:39:18.710Z,22.33
2019-01-18T13:41:48.123Z,21.77
2019-01-18T13:44:17.624Z,22.40
2019-01-18T13:46:47.102Z,26.33
2019-01-18T13:49:16.511Z,21.50
2019-01-18T13:51:46.299Z,23.87
2019-01-18T13:54:15.997Z,28.27
2019-01-18T13:56:45.419Z,31.27
2019-01-18T13:59:14.921Z,32.23
2019-01-18T14:01:44.525Z,36.40
2019-01-18T14:04:13.907Z,36.43
2019-01-18T14:06:43.348Z,38.50
2019-01-18T14:09:12.846Z,37.50
2019-01-18T14:11:44.203Z,28.00
2019-01-18T14:14:13.598Z,24.77
2019-01-18T14:16:43.007Z,22.10
2019-01-18T14:19:12.508Z,22.80
2019-01-18T14:21:41.994Z,21.37
2019-01-18T14:24:11.394Z,24.13
2019-01-18T14:26:40.814Z,24.03
2019-01-18T14:29:10.297Z,22.30
2019-01-18T14:31:39.796Z,22.17
2019-01-18T14:34:09.208Z,25.00
2019-01-18T14:36:39.073Z,44.73
2019-01-18T14:39:11.601Z,80.13
2019-01-18T14:41:42.220Z,53.23
2019-01-18T14:44:12.795Z,47.83
2019-01-18T14:46:42.289Z,50.43
2019-01-18T14:49:11.691Z,44.23
2019-01-18T14:51:43.883Z,58.70
2019-01-18T14:54:13.385Z,48.93
2019-01-18T14:56:42.914Z,48.60
2019-01-18T14:59:12.320Z,45.40
2019-01-18T15:01:43.834Z,49.53
2019-01-18T15:04:13.401Z,53.77
2019-01-18T15:06:42.892Z,143.60
2019-01-18T15:09:12.302Z,125.27
2019-01-18T15:11:41.721Z,60.53
2019-01-18T15:14:11.201Z,38.97
2019-01-18T15:16:40.626Z,29.17
2019-01-18T15:19:10.169Z,32.47
2019-01-18T15:21:39.652Z,21.57
2019-01-18T15:24:09.053Z,24.63
2019-01-18T15:26:38.459Z,18.97
2019-01-18T15:29:07.961Z,14.53
2019-01-18T15:31:37.443Z,40.47
2019-01-18T15:34:06.854Z,28.33
2019-01-18T15:36:36.257Z,42.07
2019-01-18T15:39:10.441Z,32.70
2019-01-18T15:41:40.113Z,44.30
2019-01-18T15:44:11.582Z,50.77
2019-01-18T15:46:41.004Z,34.03
2019-01-18T15:49:10.788Z,33.60
2019-01-18T15:51:40.282Z,27.67
2019-01-18T15:54:10.091Z,28.20
2019-01-18T15:56:39.597Z,24.03
2019-01-18T15:59:10.602Z,19.50
2019-01-18T16:01:40.118Z,28.63
2019-01-18T16:04:09.536Z,28.30
2019-01-18T16:06:39.358Z,16.30
2019-01-18T16:09:09.276Z,16.10
2019-01-18T16:11:38.760Z,35.73
2019-01-18T16:14:08.188Z,35.00
2019-01-18T16:16:50.363Z,17.77
2019-01-18T16:19:19.868Z,29.33
2019-01-18T16:21:49.365Z,23.33
2019-01-18T16:24:19.722Z,19.70
2019-01-18T16:26:49.127Z,17.07
2019-01-18T16:29:20.781Z,19.30
2019-01-18T16:31:50.654Z,25.30
2019-01-18T16:34:20.078Z,26.60
2019-01-18T16:36:49.564Z,37.43
2019-01-18T16:39:19.046Z,46.33
2019-01-18T16:41:48.491Z,36.80
2019-01-18T16:44:17.996Z,32.57
2019-01-18T16:46:47.478Z,32.87
2019-01-18T16:49:16.875Z,38.57
2019-01-18T16:51:46.280Z,51.13
2019-01-18T16:54:15.806Z,72.90
2019-01-18T16:56:45.284Z,35.80
2019-01-18T16:59:14.711Z,25.07
2019-01-18T17:01:44.129Z,45.63
2019-01-18T17:04:13.641Z,33.33
2019-01-18T17:06:43.132Z,33.17
2019-01-18T17:09:12.523Z,36.80
2019-01-18T17:11:44.466Z,16.53
2019-01-18T17:14:13.966Z,18.97
2019-01-18T17:16:45.072Z,18.87
2019-01-18T17:19:14.656Z,18.27
2019-01-18T17:21:44.243Z,18.20
2019-01-18T17:24:13.668Z,22.60
2019-01-18T17:26:43.069Z,28.13
2019-01-18T17:29:12.565Z,58.43
2019-01-18T17:31:42.062Z,46.57
2019-01-18T17:34:11.473Z,70.93
2019-01-18T17:37:00.231Z,90.53
2019-01-18T17:40:29.014Z,68.90
2019-01-18T17:43:25.553Z,41.73
2019-01-18T17:46:35.295Z,54.63
2019-01-18T17:49:51.659Z,63.40
2019-01-18T17:52:52.060Z,45.73
2019-01-18T17:56:03.136Z,40.53
2019-01-18T17:59:10.030Z,43.87
2019-01-18T18:02:00.443Z,25.53
2019-01-18T18:04:57.940Z,39.23
2019-01-18T18:08:22.363Z,41.67
2019-01-18T18:11:26.100Z,42.70
2019-01-18T18:14:37.206Z,31.27
2019-01-18T18:18:05.528Z,37.93
2019-01-18T18:21:18.744Z,29.07
2019-01-18T18:24:21.939Z,26.27
2019-01-18T18:27:40.420Z,18.73
2019-01-18T18:30:24.908Z,15.20
2019-01-18T18:33:50.699Z,31.17
2019-01-18T18:37:09.931Z,22.03
2019-01-18T18:39:57.086Z,20.70
2019-01-18T18:43:19.139Z,24.87
2019-01-18T18:46:32.727Z,21.90
2019-01-18T18:49:12.368Z,10.83
2019-01-18T18:52:18.446Z,11.70
2019-01-18T18:55:33.841Z,21.10
2019-01-18T18:59:08.450Z,25.53
2019-01-18T19:02:03.302Z,18.97
2019-01-18T19:05:13.545Z,19.40
2019-01-18T19:08:20.043Z,22.90
2019-01-18T19:11:31.431Z,24.47
2019-01-18T19:14:30.965Z,30.33
2019-01-18T19:17:31.714Z,28.30
2019-01-18T19:20:47.011Z,25.40
2019-01-18T19:23:53.160Z,21.00
2019-01-18T19:27:14.395Z,24.80
2019-01-18T19:30:36.425Z,27.70
2019-01-18T19:33:52.169Z,24.10
2019-01-18T19:36:59.182Z,31.27
2019-01-18T19:39:45.725Z,35.60
2019-01-18T19:42:42.577Z,35.67
2019-01-18T19:45:58.941Z,30.23
2019-01-18T19:49:09.090Z,26.60
2019-01-18T19:51:52.124Z,31.67
2019-01-18T19:54:45.089Z,29.27
2019-01-18T19:57:54.239Z,33.83
2019-01-18T20:00:46.187Z,31.27
2019-01-18T20:04:21.002Z,37.37
2019-01-18T20:07:19.622Z,31.17
2019-01-18T20:10:18.380Z,24.87
2019-01-18T20:13:29.262Z,21.60
2019-01-18T20:16:33.748Z,20.60
2019-01-18T20:19:45.691Z,19.77
2019-01-18T20:22:26.396Z,30.80
2019-01-18T20:25:39.172Z,42.33
2019-01-18T20:28:40.649Z,33.40
2019-01-18T20:31:21.915Z,30.70
2019-01-18T20:34:18.513Z,33.07
2019-01-18T20:37:37.357Z,25.80
2019-01-18T20:41:02.478Z,20.77
2019-01-18T20:43:53.750Z,17.60
2019-01-18T20:47:05.461Z,16.93
2019-01-18T20:50:21.647Z,16.57
2019-01-18T20:53:44.086Z,15.87
2019-01-18T20:56:33.125Z,17.27
2019-01-18T20:59:55.173Z,22.93
2019-01-18T21:03:05.002Z,26.30
2019-01-18T21:06:14.312Z,24.83
2019-01-18T21:09:42.641Z,23.73
2019-01-18T21:12:48.880Z,20.77
2019-01-18T21:15:34.930Z,17.93
2019-01-18T21:18:24.788Z,19.70
2019-01-18T21:21:27.125Z,16.43
2019-01-18T21:24:52.991Z,15.20
2019-01-18T21:27:45.738Z,18.60
2019-01-18T21:30:31.789Z,26.10
2019-01-18T21:33:34.012Z,22.30
2019-01-18T21:36:40.239Z,19.63
2019-01-18T21:40:02.367Z,19.47
2019-01-18T21:43:10.293Z,17.23
2019-01-18T21:46:03.778Z,16.77
2019-01-18T21:49:14.844Z,15.73
2019-01-18T21:52:24.452Z,15.80
2019-01-18T21:55:38.915Z,23.27
2019-01-18T21:58:27.191Z,25.13
2019-01-18T22:01:35.589Z,21.67
2019-01-18T22:04:10.734Z,19.67
2019-01-18T22:07:22.978Z,19.17
2019-01-18T22:10:51.355Z,24.07
2019-01-18T22:13:39.896Z,21.70
2019-01-18T22:16:41.533Z,21.07
2019-01-18T22:19:32.273Z,19.13
2019-01-18T22:22:26.516Z,22.23
2019-01-18T22:25:38.968Z,21.23
2019-01-18T22:28:29.552Z,21.63
2019-01-18T22:31:47.166Z,22.93
2019-01-18T22:34:47.961Z,21.40
2019-01-18T22:38:11.487Z,30.60
2019-01-18T22:41:08.113Z,23.50
2019-01-18T22:43:58.677Z,22.30
2019-01-18T22:47:14.741Z,19.37
2019-01-18T22:50:31.010Z,18.73
2019-01-18T22:53:43.074Z,26.03
2019-01-18T22:56:48.141Z,18.87
2019-01-18T23:00:35.037Z,34.53
2019-01-18T23:03:29.422Z,19.57
2019-01-18T23:06:54.811Z,22.47
2019-01-18T23:10:20.572Z,23.53
2019-01-18T23:13:35.249Z,23.30
2019-01-18T23:16:46.954Z,21.67
2019-01-18T23:19:47.501Z,28.90
2019-01-18T23:22:40.099Z,23.57
2019-01-18T23:25:17.253Z,22.73
2019-01-18T23:28:29.571Z,26.73
2019-01-18T23:31:24.735Z,26.77
2019-01-18T23:34:27.312Z,24.80
2019-01-18T23:37:46.461Z,20.43
2019-01-18T23:41:20.827Z,19.17
2019-01-18T23:44:21.447Z,19.07
2019-01-18T23:47:12.128Z,17.13
2019-01-18T23:49:54.944Z,17.63
2019-01-18T23:52:36.517Z,15.80
2019-01-18T23:55:58.919Z,17.03
2019-01-18T23:59:11.045Z,19.70
